createdAt,value
2023-04-06T00:00:09.791Z,7.22
2023-04-06T00:01:12.863Z,7.50
2023-04-06T00:02:14.438Z,7.25
2023-04-06T00:03:17.836Z,7.07
2023-04-06T00:04:19.399Z,7.13
2023-04-06T00:05:22.762Z,7.22
2023-04-06T00:06:24.353Z,7.53
2023-04-06T00:07:29.156Z,7.13
2023-04-06T00:08:30.866Z,7.80
2023-04-06T00:09:33.278Z,7.03
2023-04-06T00:10:35.019Z,7.88
2023-04-06T00:11:37.535Z,7.78
2023-04-06T00:12:39.086Z,6.65
2023-04-06T00:13:41.591Z,7.30
2023-04-06T00:14:43.146Z,7.20
2023-04-06T00:15:45.643Z,7.05
2023-04-06T00:16:47.179Z,7.32
2023-04-06T00:17:49.826Z,7.05
2023-04-06T00:18:51.454Z,7.30
2023-04-06T00:19:53.890Z,7.07
2023-04-06T00:20:55.377Z,6.82
2023-04-06T00:21:58.101Z,7.13
2023-04-06T00:23:01.489Z,7.82
2023-04-06T00:24:04.894Z,7.88
2023-04-06T00:25:06.880Z,7.38
2023-04-06T00:26:10.054Z,8.30
2023-04-06T00:27:11.673Z,7.85
2023-04-06T00:28:14.222Z,7.65
2023-04-06T00:29:16.091Z,8.02
2023-04-06T00:30:18.837Z,7.93
2023-04-06T00:31:20.556Z,8.48
2023-04-06T00:32:23.075Z,7.15
2023-04-06T00:33:24.998Z,8.02
2023-04-06T00:34:27.481Z,7.53
2023-04-06T00:35:29.010Z,7.63
2023-04-06T00:36:31.449Z,7.85
2023-04-06T00:37:33.341Z,7.55
2023-04-06T00:38:37.164Z,7.07
2023-04-06T00:39:38.685Z,7.38
2023-04-06T00:40:41.656Z,7.80
2023-04-06T00:41:49.040Z,7.93
2023-04-06T00:42:51.799Z,7.43
2023-04-06T00:43:55.076Z,7.85
2023-04-06T00:44:59.466Z,8.00
2023-04-06T00:46:01.055Z,7.53
2023-04-06T00:47:03.848Z,6.93
2023-04-06T00:48:07.156Z,7.70
2023-04-06T00:49:11.026Z,7.85
2023-04-06T00:50:13.788Z,7.47
2023-04-06T00:51:15.642Z,7.57
2023-04-06T00:52:18.202Z,7.43
2023-04-06T00:53:19.757Z,7.22
2023-04-06T00:54:23.914Z,7.40
2023-04-06T00:55:25.627Z,7.38
2023-04-06T00:56:28.472Z,7.28
2023-04-06T00:57:30.646Z,7.85
2023-04-06T00:58:33.357Z,7.32
2023-04-06T00:59:35.313Z,6.80
2023-04-06T01:00:37.833Z,7.15
2023-04-06T01:01:39.411Z,8.35
2023-04-06T01:02:42.091Z,7.85
2023-04-06T01:03:45.375Z,8.25
2023-04-06T01:04:47.937Z,7.85
2023-04-06T01:05:49.642Z,8.48
2023-04-06T01:06:52.494Z,7.63
2023-04-06T01:07:54.015Z,7.88
2023-04-06T01:08:56.640Z,7.80
2023-04-06T01:09:59.538Z,7.80
2023-04-06T01:11:02.797Z,8.05
2023-04-06T01:12:07.011Z,7.88
2023-04-06T01:13:09.527Z,8.20
2023-04-06T01:14:11.554Z,7.97
2023-04-06T01:15:14.695Z,7.85
2023-04-06T01:16:16.410Z,7.78
2023-04-06T01:17:18.944Z,7.85
2023-04-06T01:18:26.616Z,7.95
2023-04-06T01:19:29.956Z,7.63
2023-04-06T01:20:31.488Z,7.88
2023-04-06T01:21:34.217Z,8.10
2023-04-06T01:22:37.049Z,7.65
2023-04-06T01:23:39.744Z,7.22
2023-04-06T01:24:41.250Z,8.13
2023-04-06T01:25:43.729Z,7.97
2023-04-06T01:26:45.570Z,7.45
2023-04-06T01:27:48.098Z,7.32
2023-04-06T01:28:49.570Z,7.55
2023-04-06T01:29:51.989Z,7.28
2023-04-06T01:30:53.503Z,8.20
2023-04-06T01:31:56.333Z,7.40
2023-04-06T01:32:57.972Z,7.72
2023-04-06T01:34:00.573Z,7.45
2023-04-06T01:35:02.125Z,7.68
2023-04-06T01:36:05.388Z,8.27
2023-04-06T01:37:07.018Z,7.43
2023-04-06T01:38:10.875Z,7.85
2023-04-06T01:39:12.385Z,7.88
2023-04-06T01:40:15.585Z,7.53
2023-04-06T01:41:17.074Z,7.88
2023-04-06T01:42:19.565Z,8.02
2023-04-06T01:43:21.602Z,8.05
2023-04-06T01:44:24.075Z,8.10
2023-04-06T01:45:25.691Z,8.25
2023-04-06T01:46:28.277Z,7.97
2023-04-06T01:47:30.193Z,7.97
2023-04-06T01:48:31.716Z,7.63
2023-04-06T01:49:34.848Z,8.07
2023-04-06T01:50:36.429Z,7.85
2023-04-06T01:51:39.050Z,8.18
2023-04-06T01:52:40.669Z,7.65
2023-04-06T01:53:44.507Z,8.07
2023-04-06T01:54:46.083Z,7.50
2023-04-06T01:55:48.666Z,7.93
2023-04-06T01:56:51.568Z,7.85
2023-04-06T01:57:54.033Z,8.43
2023-04-06T01:58:56.125Z,8.10
2023-04-06T01:59:58.577Z,7.72
2023-04-06T02:01:00.084Z,8.02
2023-04-06T02:02:02.680Z,7.72
2023-04-06T02:03:04.643Z,7.82
2023-04-06T02:04:07.100Z,8.43
2023-04-06T02:05:09.263Z,7.72
2023-04-06T02:06:11.798Z,7.18
2023-04-06T02:07:13.325Z,7.63
2023-04-06T02:08:15.947Z,7.97
2023-04-06T02:09:19.025Z,8.05
2023-04-06T02:10:21.545Z,7.60
2023-04-06T02:11:23.041Z,7.43
2023-04-06T02:12:25.937Z,7.85
2023-04-06T02:13:27.481Z,7.55
2023-04-06T02:14:29.949Z,8.23
2023-04-06T02:15:31.459Z,7.95
2023-04-06T02:16:34.086Z,8.50
2023-04-06T02:17:35.886Z,8.05
2023-04-06T02:18:38.416Z,8.57
2023-04-06T02:19:39.930Z,8.90
2023-04-06T02:20:42.646Z,9.15
2023-04-06T02:21:44.197Z,8.10
2023-04-06T02:22:46.846Z,8.63
2023-04-06T02:23:48.409Z,8.55
2023-04-06T02:24:52.220Z,9.20
2023-04-06T02:25:54.974Z,9.02
2023-04-06T02:26:56.460Z,8.38
2023-04-06T02:27:58.910Z,9.38
2023-04-06T02:29:00.589Z,10.27
2023-04-06T02:30:03.160Z,8.93
2023-04-06T02:31:04.679Z,9.30
2023-04-06T02:32:07.321Z,8.90
2023-04-06T02:33:08.835Z,9.05
2023-04-06T02:34:13.013Z,9.52
2023-04-06T02:35:14.585Z,8.18
2023-04-06T02:36:17.262Z,9.10
2023-04-06T02:37:18.804Z,9.23
2023-04-06T02:38:21.650Z,8.57
2023-04-06T02:39:23.937Z,7.95
2023-04-06T02:40:27.813Z,8.70
2023-04-06T02:41:29.308Z,8.57
2023-04-06T02:42:31.738Z,8.88
2023-04-06T02:43:33.569Z,8.82
2023-04-06T02:44:36.192Z,8.52
2023-04-06T02:45:37.683Z,9.02
2023-04-06T02:46:40.346Z,9.05
2023-04-06T02:47:41.892Z,8.65
2023-04-06T02:48:44.459Z,8.57
2023-04-06T02:49:47.437Z,8.65
2023-04-06T02:50:51.123Z,8.07
2023-04-06T02:51:52.669Z,8.63
2023-04-06T02:52:55.510Z,8.82
2023-04-06T02:53:57.019Z,8.93
2023-04-06T02:54:59.496Z,8.95
2023-04-06T02:56:02.354Z,9.13
2023-04-06T02:57:04.832Z,8.30
2023-04-06T02:58:06.679Z,8.18
2023-04-06T02:59:09.578Z,8.25
2023-04-06T03:00:12.798Z,9.05
2023-04-06T03:01:15.830Z,8.70
2023-04-06T03:02:17.462Z,8.43
2023-04-06T03:03:20.146Z,9.13
2023-04-06T03:04:23.755Z,8.30
2023-04-06T03:05:26.275Z,8.65
2023-04-06T03:06:27.781Z,9.05
2023-04-06T03:07:30.732Z,8.68
2023-04-06T03:08:32.209Z,8.77
2023-04-06T03:09:35.280Z,8.95
2023-04-06T03:10:36.885Z,9.18
2023-04-06T03:11:40.716Z,10.05
2023-04-06T03:12:42.720Z,9.30
2023-04-06T03:13:45.254Z,9.80
2023-04-06T03:14:46.768Z,8.77
2023-04-06T03:15:49.479Z,9.55
2023-04-06T03:16:51.101Z,8.85
2023-04-06T03:17:53.578Z,8.95
2023-04-06T03:18:55.133Z,9.18
2023-04-06T03:19:57.575Z,8.05
2023-04-06T03:20:59.174Z,9.05
2023-04-06T03:22:01.789Z,9.13
2023-04-06T03:23:03.332Z,8.80
2023-04-06T03:24:06.589Z,8.80
2023-04-06T03:25:08.520Z,8.95
2023-04-06T03:26:11.052Z,9.38
2023-04-06T03:27:14.037Z,8.52
2023-04-06T03:28:17.012Z,9.00
2023-04-06T03:29:18.528Z,8.82
2023-04-06T03:30:21.392Z,8.48
2023-04-06T03:31:23.023Z,8.60
2023-04-06T03:32:25.700Z,8.93
2023-04-06T03:33:28.069Z,8.60
2023-04-06T03:34:30.561Z,8.43
2023-04-06T03:35:32.113Z,9.02
2023-04-06T03:36:36.191Z,9.05
2023-04-06T03:37:37.681Z,9.27
2023-04-06T03:38:41.409Z,10.13
2023-04-06T03:39:43.071Z,9.30
2023-04-06T03:40:45.522Z,8.45
2023-04-06T03:41:47.160Z,10.02
2023-04-06T03:42:51.703Z,8.80
2023-04-06T03:43:53.516Z,9.75
2023-04-06T03:44:56.042Z,9.15
2023-04-06T03:45:57.592Z,9.30
2023-04-06T03:47:00.383Z,10.02
2023-04-06T03:48:01.974Z,9.93
2023-04-06T03:49:04.432Z,9.70
2023-04-06T03:50:07.142Z,10.27
2023-04-06T03:51:09.660Z,9.73
2023-04-06T03:52:11.228Z,10.40
2023-04-06T03:53:13.684Z,11.85
2023-04-06T03:54:15.261Z,12.43
2023-04-06T03:55:17.755Z,11.23
2023-04-06T03:56:19.359Z,11.85
2023-04-06T03:57:21.816Z,12.77
2023-04-06T03:58:24.742Z,11.82
2023-04-06T03:59:27.267Z,12.52
2023-04-06T04:00:29.085Z,13.07
2023-04-06T04:01:31.640Z,12.52
2023-04-06T04:02:33.327Z,11.38
2023-04-06T04:03:35.912Z,12.30
2023-04-06T04:04:37.552Z,11.75
2023-04-06T04:05:40.099Z,12.02
2023-04-06T04:06:41.599Z,12.05
2023-04-06T04:07:44.049Z,11.07
2023-04-06T04:08:45.664Z,11.15
2023-04-06T04:09:48.139Z,11.85
2023-04-06T04:10:49.738Z,11.70
2023-04-06T04:11:52.209Z,11.02
2023-04-06T04:12:53.698Z,11.50
2023-04-06T04:13:57.462Z,10.68
2023-04-06T04:14:59.084Z,11.23
2023-04-06T04:16:01.881Z,10.95
2023-04-06T04:17:03.494Z,10.15
2023-04-06T04:18:06.072Z,10.07
2023-04-06T04:19:07.979Z,9.82
2023-04-06T04:20:11.225Z,10.07
2023-04-06T04:21:12.709Z,10.40
2023-04-06T04:22:15.333Z,10.20
2023-04-06T04:23:16.804Z,10.38
2023-04-06T04:24:19.314Z,10.50
2023-04-06T04:25:21.035Z,10.50
2023-04-06T04:26:23.602Z,10.40
2023-04-06T04:27:25.121Z,10.20
2023-04-06T04:28:27.630Z,9.90
2023-04-06T04:29:30.522Z,10.55
2023-04-06T04:30:32.976Z,10.23
2023-04-06T04:31:34.592Z,10.45
2023-04-06T04:32:37.171Z,10.63
2023-04-06T04:33:38.682Z,10.45
2023-04-06T04:34:41.694Z,10.32
2023-04-06T04:35:43.286Z,10.80
2023-04-06T04:36:46.000Z,10.18
2023-04-06T04:37:47.553Z,10.23
2023-04-06T04:38:50.288Z,9.93
2023-04-06T04:39:51.887Z,9.70
2023-04-06T04:40:54.359Z,10.43
2023-04-06T04:41:55.880Z,10.75
2023-04-06T04:42:58.316Z,11.85
2023-04-06T04:43:59.974Z,10.98
2023-04-06T04:45:03.903Z,11.43
2023-04-06T04:46:05.740Z,11.05
2023-04-06T04:47:08.428Z,11.38
2023-04-06T04:48:10.312Z,11.20
2023-04-06T04:49:12.886Z,10.60
2023-04-06T04:50:17.429Z,11.85
2023-04-06T04:51:20.612Z,11.45
2023-04-06T04:52:22.202Z,11.05
2023-04-06T04:53:25.241Z,11.50
2023-04-06T04:54:27.768Z,11.50
2023-04-06T04:55:30.423Z,11.48
2023-04-06T04:56:31.987Z,11.80
2023-04-06T04:57:34.494Z,11.77
2023-04-06T04:58:36.902Z,11.80
2023-04-06T04:59:39.476Z,11.98
2023-04-06T05:00:42.391Z,11.75
2023-04-06T05:01:54.277Z,12.05
2023-04-06T05:02:57.730Z,12.45
2023-04-06T05:03:59.322Z,12.45
2023-04-06T05:05:02.036Z,12.18
2023-04-06T05:06:04.001Z,12.68
2023-04-06T05:07:07.671Z,11.45
2023-04-06T05:08:10.133Z,11.95
2023-04-06T05:09:11.623Z,11.40
2023-04-06T05:10:14.236Z,11.18
2023-04-06T05:11:16.001Z,12.02
2023-04-06T05:12:18.533Z,11.60
2023-04-06T05:13:20.572Z,11.63
2023-04-06T05:14:23.044Z,11.35
2023-04-06T05:15:24.549Z,11.43
2023-04-06T05:16:28.600Z,11.15
2023-04-06T05:17:30.367Z,11.23
2023-04-06T05:18:32.901Z,12.38
2023-04-06T05:19:34.438Z,10.77
2023-04-06T05:20:37.615Z,12.10
2023-04-06T05:21:39.130Z,10.65
2023-04-06T05:22:41.647Z,11.60
2023-04-06T05:23:43.297Z,12.07
2023-04-06T05:24:46.224Z,11.77
2023-04-06T05:25:47.799Z,11.45
2023-04-06T05:26:50.502Z,11.27
2023-04-06T05:27:52.194Z,11.63
2023-04-06T05:28:55.666Z,11.35
2023-04-06T05:29:57.965Z,11.05
2023-04-06T05:31:00.705Z,11.07
2023-04-06T05:32:03.686Z,11.57
2023-04-06T05:33:06.206Z,11.90
2023-04-06T05:34:07.780Z,12.35
2023-04-06T05:35:11.164Z,11.43
2023-04-06T05:36:14.491Z,11.95
2023-04-06T05:37:17.889Z,11.55
2023-04-06T05:38:19.366Z,11.15
2023-04-06T05:39:21.827Z,10.43
2023-04-06T05:40:23.354Z,11.25
2023-04-06T05:41:25.883Z,11.07
2023-04-06T05:42:28.251Z,10.63
2023-04-06T05:43:30.736Z,11.50
2023-04-06T05:44:32.302Z,11.70
2023-04-06T05:45:35.949Z,12.68
2023-04-06T05:46:37.516Z,11.55
2023-04-06T05:47:41.398Z,11.98
2023-04-06T05:48:42.926Z,11.63
2023-04-06T05:49:45.723Z,12.23
2023-04-06T05:50:50.455Z,11.80
2023-04-06T05:51:53.046Z,12.45
2023-04-06T05:52:54.548Z,12.80
2023-04-06T05:53:57.036Z,12.25
2023-04-06T05:54:58.654Z,12.10
2023-04-06T05:56:02.844Z,11.80
2023-04-06T05:57:04.586Z,11.85
2023-04-06T05:58:06.990Z,11.95
2023-04-06T05:59:08.820Z,11.95
2023-04-06T06:00:12.942Z,12.23
2023-04-06T06:01:15.387Z,12.02
2023-04-06T06:02:16.887Z,11.93
2023-04-06T06:03:21.081Z,11.07
2023-04-06T06:04:22.638Z,11.90
2023-04-06T06:05:25.437Z,12.10
2023-04-06T06:06:29.898Z,12.00
2023-04-06T06:07:32.585Z,11.80
2023-04-06T06:08:34.571Z,12.48
2023-04-06T06:09:37.026Z,11.20
2023-04-06T06:10:39.467Z,11.73
2023-04-06T06:11:43.023Z,11.32
2023-04-06T06:12:44.570Z,10.88
2023-04-06T06:13:47.072Z,12.60
2023-04-06T06:14:48.563Z,11.48
2023-04-06T06:15:51.243Z,11.70
2023-04-06T06:16:52.739Z,10.95
2023-04-06T06:17:55.341Z,10.55
2023-04-06T06:18:58.207Z,9.40
2023-04-06T06:20:01.761Z,9.43
2023-04-06T06:21:04.949Z,9.00
2023-04-06T06:22:07.427Z,9.43
2023-04-06T06:23:09.014Z,8.95
2023-04-06T06:24:11.471Z,9.40
2023-04-06T06:25:12.983Z,8.68
2023-04-06T06:26:15.589Z,9.13
2023-04-06T06:27:18.101Z,8.55
2023-04-06T06:28:19.586Z,8.80
2023-04-06T06:29:22.032Z,9.10
2023-04-06T06:30:23.714Z,8.40
2023-04-06T06:31:26.287Z,7.88
2023-04-06T06:32:27.796Z,8.63
2023-04-06T06:33:30.356Z,8.18
2023-04-06T06:34:33.291Z,7.47
2023-04-06T06:35:35.841Z,8.20
2023-04-06T06:36:38.375Z,7.72
2023-04-06T06:37:39.878Z,8.10
2023-04-06T06:38:42.648Z,8.02
2023-04-06T06:39:44.308Z,7.40
2023-04-06T06:40:47.923Z,7.10
2023-04-06T06:41:49.525Z,8.02
2023-04-06T06:42:52.975Z,8.00
2023-04-06T06:43:54.527Z,7.55
2023-04-06T06:44:57.264Z,7.90
2023-04-06T06:45:59.779Z,8.88
2023-04-06T06:47:02.408Z,10.05
2023-04-06T06:48:04.185Z,12.80
2023-04-06T06:49:06.951Z,12.15
2023-04-06T06:50:10.501Z,12.40
2023-04-06T06:51:13.241Z,12.15
2023-04-06T06:52:16.032Z,11.80
2023-04-06T06:53:18.000Z,11.70
2023-04-06T06:54:20.523Z,12.20
2023-04-06T06:55:22.696Z,11.80
2023-04-06T06:56:26.656Z,10.70
2023-04-06T06:57:28.953Z,10.10
2023-04-06T06:58:31.671Z,10.75
2023-04-06T06:59:33.471Z,10.43
2023-04-06T07:00:36.134Z,10.55
2023-04-06T07:01:37.776Z,10.30
2023-04-06T07:02:40.769Z,10.68
2023-04-06T07:03:43.342Z,10.38
2023-04-06T07:04:45.086Z,11.35
2023-04-06T07:05:54.451Z,11.50
2023-04-06T07:06:56.177Z,12.40
2023-04-06T07:07:58.855Z,13.77
2023-04-06T07:09:00.365Z,12.68
2023-04-06T07:10:03.196Z,14.07
2023-04-06T07:11:05.852Z,14.38
2023-04-06T07:12:07.523Z,14.13
2023-04-06T07:13:09.950Z,14.20
2023-04-06T07:14:12.641Z,13.80
2023-04-06T07:15:15.405Z,13.75
2023-04-06T07:16:17.318Z,12.85
2023-04-06T07:17:19.914Z,12.75
2023-04-06T07:18:21.858Z,11.32
2023-04-06T07:19:24.448Z,11.52
2023-04-06T07:20:28.998Z,10.45
2023-04-06T07:21:32.840Z,10.88
2023-04-06T07:22:35.647Z,10.70
2023-04-06T07:23:38.149Z,11.27
2023-04-06T07:24:40.731Z,11.23
2023-04-06T07:25:43.530Z,10.82
2023-04-06T07:26:46.475Z,10.73
2023-04-06T07:27:49.445Z,10.35
2023-04-06T07:28:52.281Z,10.35
2023-04-06T07:29:53.788Z,10.10
2023-04-06T07:30:56.308Z,10.15
2023-04-06T07:31:57.914Z,9.32
2023-04-06T07:33:01.830Z,9.38
2023-04-06T07:34:04.461Z,9.32
2023-04-06T07:35:06.360Z,9.30
2023-04-06T07:36:08.989Z,8.07
2023-04-06T07:37:11.878Z,7.75
2023-04-06T07:38:14.632Z,7.60
2023-04-06T07:39:16.222Z,7.45
2023-04-06T07:40:19.066Z,7.38
2023-04-06T07:41:21.718Z,7.25
2023-04-06T07:42:23.225Z,6.90
2023-04-06T07:43:26.146Z,6.70
2023-04-06T07:44:27.800Z,6.90
2023-04-06T07:45:30.340Z,6.82
2023-04-06T07:46:32.993Z,6.22
2023-04-06T07:47:34.984Z,6.72
2023-04-06T07:48:38.468Z,6.30
2023-04-06T07:49:39.986Z,6.78
2023-04-06T07:50:42.479Z,6.28
2023-04-06T07:51:44.977Z,5.78
2023-04-06T07:52:48.577Z,6.03
2023-04-06T07:53:52.201Z,5.75
2023-04-06T07:54:54.042Z,5.55
2023-04-06T07:55:57.357Z,5.97
2023-04-06T07:56:59.817Z,6.13
2023-04-06T07:58:02.343Z,6.15
2023-04-06T07:59:05.298Z,7.05
2023-04-06T08:00:10.386Z,5.95
2023-04-06T08:01:12.859Z,6.07
2023-04-06T08:02:14.478Z,6.13
2023-04-06T08:03:17.691Z,5.90
2023-04-06T08:04:19.426Z,5.90
2023-04-06T08:05:22.350Z,5.50
2023-04-06T08:06:23.975Z,5.82
2023-04-06T08:07:26.564Z,5.80
2023-04-06T08:08:29.980Z,5.93
2023-04-06T08:09:32.478Z,6.22
2023-04-06T08:10:35.458Z,6.45
2023-04-06T08:11:37.968Z,5.93
2023-04-06T08:12:39.572Z,5.85
2023-04-06T08:13:41.989Z,5.38
2023-04-06T08:14:43.554Z,5.10
2023-04-06T08:15:46.183Z,5.10
2023-04-06T08:16:48.887Z,5.30
2023-04-06T08:17:50.587Z,5.10
2023-04-06T08:18:53.102Z,5.15
2023-04-06T08:19:56.974Z,4.68
2023-04-06T08:20:59.580Z,5.28
2023-04-06T08:22:02.106Z,5.10
2023-04-06T08:23:03.863Z,4.82
2023-04-06T08:24:10.913Z,5.55
2023-04-06T08:25:12.548Z,4.72
2023-04-06T08:26:15.072Z,5.25
2023-04-06T08:27:16.619Z,4.80
2023-04-06T08:28:19.095Z,5.20
2023-04-06T08:29:20.726Z,5.25
2023-04-06T08:30:23.569Z,5.45
2023-04-06T08:31:29.025Z,5.20
2023-04-06T08:32:30.904Z,4.90
2023-04-06T08:33:36.024Z,4.53
2023-04-06T08:34:40.855Z,5.57
2023-04-06T08:35:42.721Z,5.30
2023-04-06T08:36:46.545Z,4.75
2023-04-06T08:37:48.230Z,5.05
2023-04-06T08:38:51.533Z,5.18
2023-04-06T08:39:55.388Z,5.03
2023-04-06T08:40:56.964Z,4.85
2023-04-06T08:42:01.126Z,5.20
2023-04-06T08:43:04.829Z,5.40
2023-04-06T08:44:07.732Z,5.20
2023-04-06T08:45:10.496Z,5.63
2023-04-06T08:46:13.625Z,5.45
2023-04-06T08:47:16.445Z,5.03
2023-04-06T08:48:19.693Z,5.78
2023-04-06T08:49:22.543Z,5.40
2023-04-06T08:50:25.088Z,5.30
2023-04-06T08:51:28.543Z,5.32
2023-04-06T08:52:33.398Z,5.55
2023-04-06T08:53:36.077Z,5.70
2023-04-06T08:54:38.006Z,6.07
2023-04-06T08:55:44.790Z,4.95
2023-04-06T08:56:48.429Z,5.93
2023-04-06T08:57:51.104Z,4.95
2023-04-06T08:58:55.782Z,5.72
2023-04-06T08:59:59.987Z,5.68
2023-04-06T09:01:03.131Z,5.88
2023-04-06T09:02:07.201Z,6.00
2023-04-06T09:03:10.709Z,5.95
2023-04-06T09:04:14.380Z,5.63
2023-04-06T09:05:17.747Z,5.90
2023-04-06T09:06:19.787Z,6.32
2023-04-06T09:07:23.411Z,5.68
2023-04-06T09:08:24.999Z,6.03
2023-04-06T09:09:27.462Z,6.07
2023-04-06T09:10:29.840Z,5.63
2023-04-06T09:11:45.371Z,5.55
2023-04-06T09:12:47.931Z,5.72
2023-04-06T09:13:51.114Z,6.20
2023-04-06T09:14:53.693Z,5.80
2023-04-06T09:16:02.674Z,5.53
2023-04-06T09:17:05.295Z,6.13
2023-04-06T09:18:09.062Z,6.07
2023-04-06T09:19:12.140Z,5.95
2023-04-06T09:20:13.708Z,5.30
2023-04-06T09:21:20.598Z,6.60
2023-04-06T09:22:25.671Z,6.22
2023-04-06T09:23:28.478Z,5.97
2023-04-06T09:24:41.977Z,6.38
2023-04-06T09:25:44.480Z,6.72
2023-04-06T09:26:48.125Z,5.22
2023-04-06T09:27:59.802Z,5.57
2023-04-06T09:29:04.543Z,5.18
2023-04-06T09:30:08.295Z,5.80
2023-04-06T09:31:11.260Z,5.30
2023-04-06T09:32:17.588Z,5.95
2023-04-06T09:33:24.887Z,5.43
2023-04-06T09:34:26.520Z,5.43
2023-04-06T09:35:31.054Z,5.43
2023-04-06T09:36:34.280Z,6.40
2023-04-06T09:37:37.706Z,6.25
2023-04-06T09:38:41.054Z,5.10
2023-04-06T09:39:42.602Z,4.55
2023-04-06T09:41:00.863Z,4.25
2023-04-06T09:42:05.845Z,4.25
2023-04-06T09:43:08.315Z,4.60
2023-04-06T09:44:11.347Z,4.50
2023-04-06T09:45:14.595Z,4.45
2023-04-06T09:46:17.239Z,3.70
2023-04-06T09:47:20.850Z,3.97
2023-04-06T09:48:23.233Z,4.20
2023-04-06T09:49:28.171Z,3.58
2023-04-06T09:50:30.446Z,4.03
2023-04-06T09:51:39.810Z,3.85
2023-04-06T09:52:47.244Z,3.63
2023-04-06T09:53:55.212Z,5.18
2023-04-06T09:54:59.984Z,4.70
2023-04-06T09:56:06.057Z,4.22
2023-04-06T09:57:26.888Z,4.80
2023-04-06T09:58:34.970Z,3.85
2023-04-06T09:59:46.027Z,4.70
2023-04-06T10:00:53.739Z,4.80
2023-04-06T10:02:00.404Z,5.13
2023-04-06T10:03:10.878Z,5.43
2023-04-06T10:04:26.698Z,4.95
2023-04-06T10:05:38.002Z,4.80
2023-04-06T10:06:40.416Z,5.45
2023-04-06T10:07:57.239Z,5.00
2023-04-06T10:09:04.496Z,4.47
2023-04-06T10:10:08.499Z,4.85
2023-04-06T10:11:10.522Z,5.07
2023-04-06T10:12:15.072Z,4.82
2023-04-06T10:13:17.117Z,4.72
2023-04-06T10:14:19.882Z,4.47
2023-04-06T10:15:23.142Z,4.57
2023-04-06T10:16:26.667Z,5.15
2023-04-06T10:17:29.207Z,5.00
2023-04-06T10:18:32.097Z,4.45
2023-04-06T10:19:43.135Z,5.32
2023-04-06T10:20:51.649Z,4.97
2023-04-06T10:21:59.658Z,4.32
2023-04-06T10:23:08.384Z,4.70
2023-04-06T10:24:11.748Z,4.97
2023-04-06T10:25:14.617Z,5.18
2023-04-06T10:26:17.666Z,4.88
2023-04-06T10:27:31.127Z,4.30
2023-04-06T10:28:36.699Z,4.82
2023-04-06T10:29:50.195Z,4.57
2023-04-06T10:30:59.059Z,4.38
2023-04-06T10:32:01.669Z,4.75
2023-04-06T10:33:14.600Z,4.80
2023-04-06T10:34:17.150Z,5.13
2023-04-06T10:35:18.645Z,4.93
2023-04-06T10:36:25.244Z,4.75
2023-04-06T10:37:26.841Z,4.85
2023-04-06T10:38:39.684Z,4.22
2023-04-06T10:39:55.720Z,4.70
2023-04-06T10:41:06.036Z,4.88
2023-04-06T10:42:08.907Z,4.32
2023-04-06T10:43:14.039Z,5.00
2023-04-06T10:44:21.873Z,4.38
2023-04-06T10:45:24.849Z,4.85
2023-04-06T10:46:29.156Z,4.47
2023-04-06T10:47:40.008Z,4.63
2023-04-06T10:48:44.134Z,5.13
2023-04-06T10:49:45.795Z,4.90
2023-04-06T10:50:50.632Z,4.38
2023-04-06T10:51:54.388Z,4.93
2023-04-06T10:53:03.802Z,5.13
2023-04-06T10:54:08.058Z,4.57
2023-04-06T10:55:13.221Z,5.00
2023-04-06T10:56:16.962Z,4.50
2023-04-06T10:57:28.937Z,4.45
2023-04-06T10:58:35.470Z,4.00
2023-04-06T10:59:38.225Z,4.13
2023-04-06T11:00:50.800Z,4.43
2023-04-06T11:01:54.283Z,4.40
2023-04-06T11:03:00.461Z,4.53
2023-04-06T11:04:03.722Z,4.30
2023-04-06T11:05:07.187Z,4.63
2023-04-06T11:06:10.058Z,4.35
2023-04-06T11:07:11.564Z,4.15
2023-04-06T11:08:24.704Z,4.55
2023-04-06T11:09:28.095Z,4.40
2023-04-06T11:10:31.324Z,4.30
2023-04-06T11:11:35.067Z,4.38
2023-04-06T11:12:36.882Z,4.30
2023-04-06T11:13:46.132Z,4.35
2023-04-06T11:14:55.442Z,4.22
2023-04-06T11:16:01.496Z,4.85
2023-04-06T11:17:05.638Z,4.50
2023-04-06T11:18:07.407Z,4.50
2023-04-06T11:19:10.583Z,4.68
2023-04-06T11:20:14.973Z,4.35
2023-04-06T11:21:17.709Z,4.68
2023-04-06T11:22:20.277Z,4.65
2023-04-06T11:23:26.563Z,4.68
2023-04-06T11:24:29.226Z,4.50
2023-04-06T11:25:33.613Z,4.95
2023-04-06T11:26:43.381Z,4.70
2023-04-06T11:27:46.605Z,4.82
2023-04-06T11:28:50.543Z,4.60
2023-04-06T11:29:53.465Z,3.92
2023-04-06T11:30:55.518Z,4.60
2023-04-06T11:32:11.450Z,4.40
2023-04-06T11:33:22.100Z,4.75
2023-04-06T11:35:27.271Z,4.38
2023-04-06T11:36:31.197Z,4.80
2023-04-06T11:37:37.106Z,5.28
2023-04-06T11:38:44.164Z,4.78
2023-04-06T11:39:50.870Z,5.13
2023-04-06T11:40:54.300Z,5.05
2023-04-06T11:42:00.319Z,4.43
2023-04-06T11:43:11.119Z,4.88
2023-04-06T11:44:16.552Z,5.03
2023-04-06T11:45:18.075Z,5.28
2023-04-06T11:46:21.164Z,4.60
2023-04-06T11:47:30.393Z,4.80
2023-04-06T11:48:32.143Z,4.97
2023-04-06T11:49:36.079Z,4.53
2023-04-06T11:50:38.684Z,5.35
2023-04-06T11:51:40.950Z,4.97
2023-04-06T11:52:44.992Z,4.80
2023-04-06T11:53:46.887Z,4.63
2023-04-06T11:54:50.948Z,4.82
2023-04-06T11:55:52.816Z,4.78
2023-04-06T11:56:56.039Z,4.63
2023-04-06T11:57:58.621Z,4.43
2023-04-06T11:59:01.507Z,5.43
2023-04-06T12:00:05.870Z,4.80
2023-04-06T12:01:08.516Z,4.50
2023-04-06T12:02:10.547Z,4.78
2023-04-06T12:03:13.631Z,4.10
2023-04-06T12:04:16.301Z,4.95
2023-04-06T12:05:19.142Z,5.75
2023-04-06T12:06:20.835Z,4.82
2023-04-06T12:07:23.296Z,4.57
2023-04-06T12:08:26.831Z,5.38
2023-04-06T12:09:29.451Z,4.95
2023-04-06T12:10:32.168Z,6.13
2023-04-06T12:11:34.975Z,5.55
2023-04-06T12:12:36.714Z,4.75
2023-04-06T12:13:39.679Z,4.50
2023-04-06T12:14:42.089Z,4.93
2023-04-06T12:15:45.954Z,5.00
2023-04-06T12:16:47.571Z,4.55
2023-04-06T12:17:50.612Z,4.38
2023-04-06T12:18:53.274Z,5.38
2023-04-06T12:19:55.809Z,5.30
2023-04-06T12:20:59.663Z,5.43
2023-04-06T12:22:01.201Z,5.07
2023-04-06T12:23:03.786Z,5.20
2023-04-06T12:24:05.828Z,4.90
2023-04-06T12:25:08.681Z,5.32
2023-04-06T12:26:13.043Z,4.47
2023-04-06T12:27:16.008Z,4.88
2023-04-06T12:28:18.600Z,5.30
2023-04-06T12:29:21.280Z,4.65
2023-04-06T12:30:22.868Z,4.60
2023-04-06T12:31:26.751Z,5.03
2023-04-06T12:32:28.354Z,4.65
2023-04-06T12:33:30.901Z,4.60
2023-04-06T12:34:32.449Z,5.07
2023-04-06T12:35:36.070Z,5.03
2023-04-06T12:36:39.578Z,4.63
2023-04-06T12:37:41.227Z,4.53
2023-04-06T12:38:45.902Z,4.95
2023-04-06T12:39:48.441Z,4.53
2023-04-06T12:40:50.899Z,4.78
2023-04-06T12:41:53.370Z,4.40
2023-04-06T12:42:57.160Z,4.10
2023-04-06T12:44:00.376Z,4.93
2023-04-06T12:45:03.248Z,4.80
2023-04-06T12:46:06.089Z,4.32
2023-04-06T12:47:10.179Z,4.80
2023-04-06T12:48:13.090Z,4.20
2023-04-06T12:49:14.678Z,4.80
2023-04-06T12:50:17.162Z,4.20
2023-04-06T12:51:19.702Z,4.25
2023-04-06T12:52:22.161Z,4.07
2023-04-06T12:53:23.826Z,4.13
2023-04-06T12:54:27.720Z,4.07
2023-04-06T12:55:32.285Z,4.53
2023-04-06T12:56:34.855Z,4.97
2023-04-06T12:57:38.066Z,4.25
2023-04-06T12:58:41.156Z,4.20
2023-04-06T12:59:45.734Z,4.43
2023-04-06T13:00:48.241Z,4.50
2023-04-06T13:01:50.722Z,4.70
2023-04-06T13:02:53.931Z,4.22
2023-04-06T13:03:57.744Z,4.72
2023-04-06T13:04:59.319Z,5.65
2023-04-06T13:06:02.953Z,5.45
2023-04-06T13:07:05.425Z,4.50
2023-04-06T13:08:06.981Z,4.53
2023-04-06T13:09:09.434Z,4.78
2023-04-06T13:10:11.935Z,4.70
2023-04-06T13:11:13.443Z,5.22
2023-04-06T13:12:15.963Z,4.97
2023-04-06T13:13:17.926Z,4.78
2023-04-06T13:14:20.666Z,4.28
2023-04-06T13:15:22.214Z,4.43
2023-04-06T13:16:24.984Z,4.68
2023-04-06T13:17:29.449Z,5.00
2023-04-06T13:18:33.399Z,4.60
2023-04-06T13:19:35.918Z,4.90
2023-04-06T13:20:37.665Z,4.82
2023-04-06T13:21:41.310Z,4.53
2023-04-06T13:22:43.772Z,4.65
2023-04-06T13:23:45.511Z,4.45
2023-04-06T13:24:47.992Z,4.00
2023-04-06T13:25:57.405Z,5.00
2023-04-06T13:27:00.111Z,4.53
2023-04-06T13:28:03.123Z,4.68
2023-04-06T13:29:05.952Z,4.45
2023-04-06T13:30:09.324Z,4.63
2023-04-06T13:31:11.879Z,4.97
2023-04-06T13:32:14.567Z,4.38
2023-04-06T13:33:17.016Z,4.20
2023-04-06T13:34:21.016Z,4.93
2023-04-06T13:35:22.750Z,4.60
2023-04-06T13:36:25.718Z,4.43
2023-04-06T13:37:28.252Z,4.22
2023-04-06T13:38:30.406Z,4.45
2023-04-06T13:39:33.577Z,3.90
2023-04-06T13:40:35.415Z,4.60
2023-04-06T13:41:38.490Z,4.30
2023-04-06T13:42:41.809Z,4.22
2023-04-06T13:43:44.552Z,3.88
2023-04-06T13:44:48.588Z,4.53
2023-04-06T13:45:51.149Z,4.78
2023-04-06T13:46:54.609Z,4.40
2023-04-06T13:47:56.142Z,4.10
2023-04-06T13:48:58.638Z,4.68
2023-04-06T13:50:02.556Z,4.50
2023-04-06T13:51:09.708Z,4.80
2023-04-06T13:52:12.290Z,4.10
2023-04-06T13:53:14.247Z,4.25
2023-04-06T13:54:16.786Z,4.60
2023-04-06T13:55:19.334Z,4.20